sensor_id;sensor_type;location;lat;lon;timestamp;P1;durP1;ratioP1;P2;durP2;ratioP2
8536;SDS011;4306;50.210;10.628;2023-02-05T00:01:31;5.40;;;2.77;;
8536;SDS011;4306;50.210;10.628;2023-02-05T00:03:58;5.00;;;2.67;;
8536;SDS011;4306;50.210;10.628;2023-02-05T00:06:25;4.37;;;2.30;;
8536;SDS011;4306;50.210;10.628;2023-02-05T00:08:52;4.23;;;2.10;;
8536;SDS011;4306;50.210;10.628;2023-02-05T00:11:20;3.40;;;2.00;;
8536;SDS011;4306;50.210;10.628;2023-02-05T00:13:47;3.60;;;2.10;;
8536;SDS011;4306;50.210;10.628;2023-02-05T00:16:17;3.97;;;2.00;;
8536;SDS011;4306;50.210;10.628;2023-02-05T00:18:45;3.07;;;1.80;;
8536;SDS011;4306;50.210;10.628;2023-02-05T00:21:13;3.53;;;1.87;;
8536;SDS011;4306;50.210;10.628;2023-02-05T00:23:40;4.37;;;2.07;;
8536;SDS011;4306;50.210;10.628;2023-02-05T00:26:07;2.77;;;1.77;;
8536;SDS011;4306;50.210;10.628;2023-02-05T00:28:37;3.10;;;1.90;;
8536;SDS011;4306;50.210;10.628;2023-02-05T00:31:06;3.07;;;2.10;;
8536;SDS011;4306;50.210;10.628;2023-02-05T00:33:35;3.27;;;1.80;;
8536;SDS011;4306;50.210;10.628;2023-02-05T00:36:03;2.90;;;1.80;;
8536;SDS011;4306;50.210;10.628;2023-02-05T00:38:30;3.13;;;1.63;;
8536;SDS011;4306;50.210;10.628;2023-02-05T00:40:57;5.23;;;2.07;;
8536;SDS011;4306;50.210;10.628;2023-02-05T00:43:24;2.37;;;1.70;;
8536;SDS011;4306;50.210;10.628;2023-02-05T00:45:51;2.57;;;1.67;;
8536;SDS011;4306;50.210;10.628;2023-02-05T00:48:18;4.70;;;2.40;;
8536;SDS011;4306;50.210;10.628;2023-02-05T00:50:47;6.40;;;2.40;;
8536;SDS011;4306;50.210;10.628;2023-02-05T00:53:15;2.90;;;2.13;;
8536;SDS011;4306;50.210;10.628;2023-02-05T00:55:42;4.17;;;2.53;;
8536;SDS011;4306;50.210;10.628;2023-02-05T00:58:09;3.90;;;2.20;;
8536;SDS011;4306;50.210;10.628;2023-02-05T01:00:36;3.77;;;2.00;;
8536;SDS011;4306;50.210;10.628;2023-02-05T01:03:03;3.37;;;2.00;;
8536;SDS011;4306;50.210;10.628;2023-02-05T01:05:31;3.90;;;2.20;;
8536;SDS011;4306;50.210;10.628;2023-02-05T01:08:00;2.60;;;1.80;;
8536;SDS011;4306;50.210;10.628;2023-02-05T01:10:27;5.57;;;1.80;;
8536;SDS011;4306;50.210;10.628;2023-02-05T01:12:53;3.17;;;1.60;;
8536;SDS011;4306;50.210;10.628;2023-02-05T01:15:20;2.97;;;1.80;;
8536;SDS011;4306;50.210;10.628;2023-02-05T01:17:47;3.53;;;2.00;;
8536;SDS011;4306;50.210;10.628;2023-02-05T01:20:14;3.70;;;2.20;;
8536;SDS011;4306;50.210;10.628;2023-02-05T01:22:42;3.83;;;2.80;;
8536;SDS011;4306;50.210;10.628;2023-02-05T01:25:10;3.47;;;2.20;;
8536;SDS011;4306;50.210;10.628;2023-02-05T01:27:37;4.23;;;2.00;;
8536;SDS011;4306;50.210;10.628;2023-02-05T01:30:04;3.10;;;1.80;;
8536;SDS011;4306;50.210;10.628;2023-02-05T01:32:32;2.80;;;1.90;;
8536;SDS011;4306;50.210;10.628;2023-02-05T01:34:59;3.27;;;1.87;;
8536;SDS011;4306;50.210;10.628;2023-02-05T01:37:27;3.50;;;2.00;;
8536;SDS011;4306;50.210;10.628;2023-02-05T01:39:53;4.63;;;2.00;;
8536;SDS011;4306;50.210;10.628;2023-02-05T01:42:22;10.23;;;4.93;;
8536;SDS011;4306;50.210;10.628;2023-02-05T01:47:56;16.57;;;6.03;;
8536;SDS011;4306;50.210;10.628;2023-02-05T01:50:27;6.40;;;3.30;;
8536;SDS011;4306;50.210;10.628;2023-02-05T01:52:57;7.23;;;3.50;;
8536;SDS011;4306;50.210;10.628;2023-02-05T01:55:27;6.23;;;2.80;;
8536;SDS011;4306;50.210;10.628;2023-02-05T01:57:56;4.43;;;2.30;;
8536;SDS011;4306;50.210;10.628;2023-02-05T02:00:26;3.27;;;2.00;;
8536;SDS011;4306;50.210;10.628;2023-02-05T02:02:53;3.93;;;2.27;;
8536;SDS011;4306;50.210;10.628;2023-02-05T02:05:20;3.73;;;1.83;;
8536;SDS011;4306;50.210;10.628;2023-02-05T02:07:47;3.27;;;2.10;;
8536;SDS011;4306;50.210;10.628;2023-02-05T02:10:14;6.53;;;2.10;;
8536;SDS011;4306;50.210;10.628;2023-02-05T02:12:43;4.20;;;2.07;;
8536;SDS011;4306;50.210;10.628;2023-02-05T02:15:15;3.10;;;2.00;;
8536;SDS011;4306;50.210;10.628;2023-02-05T02:17:44;3.87;;;2.20;;
8536;SDS011;4306;50.210;10.628;2023-02-05T02:20:15;37.57;;;12.87;;
8536;SDS011;4306;50.210;10.628;2023-02-05T02:22:48;11.03;;;4.87;;
8536;SDS011;4306;50.210;10.628;2023-02-05T02:25:45;14.57;;;5.40;;
8536;SDS011;4306;50.210;10.628;2023-02-05T02:28:26;18.63;;;8.97;;
8536;SDS011;4306;50.210;10.628;2023-02-05T02:30:58;11.67;;;6.23;;
8536;SDS011;4306;50.210;10.628;2023-02-05T02:33:30;5.93;;;3.23;;
8536;SDS011;4306;50.210;10.628;2023-02-05T02:36:03;7.47;;;3.00;;
8536;SDS011;4306;50.210;10.628;2023-02-05T02:38:36;5.07;;;2.57;;
8536;SDS011;4306;50.210;10.628;2023-02-05T02:41:07;4.00;;;2.30;;
8536;SDS011;4306;50.210;10.628;2023-02-05T02:43:42;5.13;;;3.37;;
8536;SDS011;4306;50.210;10.628;2023-02-05T02:46:15;8.77;;;3.50;;
8536;SDS011;4306;50.210;10.628;2023-02-05T02:48:45;7.10;;;3.43;;
8536;SDS011;4306;50.210;10.628;2023-02-05T02:51:14;5.43;;;3.17;;
8536;SDS011;4306;50.210;10.628;2023-02-05T02:53:44;4.83;;;2.93;;
8536;SDS011;4306;50.210;10.628;2023-02-05T02:56:17;4.93;;;2.93;;
8536;SDS011;4306;50.210;10.628;2023-02-05T02:58:47;3.97;;;2.50;;
8536;SDS011;4306;50.210;10.628;2023-02-05T03:01:16;4.23;;;2.60;;
8536;SDS011;4306;50.210;10.628;2023-02-05T03:03:49;5.20;;;2.60;;
8536;SDS011;4306;50.210;10.628;2023-02-05T03:06:18;5.77;;;3.63;;
8536;SDS011;4306;50.210;10.628;2023-02-05T03:08:49;3.60;;;2.53;;
8536;SDS011;4306;50.210;10.628;2023-02-05T03:11:20;3.13;;;1.90;;
8536;SDS011;4306;50.210;10.628;2023-02-05T03:13:48;4.33;;;2.30;;
8536;SDS011;4306;50.210;10.628;2023-02-05T03:16:15;3.77;;;2.63;;
8536;SDS011;4306;50.210;10.628;2023-02-05T03:18:43;5.63;;;2.83;;
8536;SDS011;4306;50.210;10.628;2023-02-05T03:21:11;4.07;;;2.77;;
8536;SDS011;4306;50.210;10.628;2023-02-05T03:23:41;3.67;;;2.43;;
8536;SDS011;4306;50.210;10.628;2023-02-05T03:26:19;5.13;;;2.60;;
8536;SDS011;4306;50.210;10.628;2023-02-05T03:28:53;4.07;;;2.37;;
8536;SDS011;4306;50.210;10.628;2023-02-05T03:31:22;5.70;;;3.30;;
8536;SDS011;4306;50.210;10.628;2023-02-05T03:33:59;5.43;;;2.80;;
8536;SDS011;4306;50.210;10.628;2023-02-05T03:36:34;5.90;;;2.90;;
8536;SDS011;4306;50.210;10.628;2023-02-05T03:39:10;6.20;;;3.90;;
8536;SDS011;4306;50.210;10.628;2023-02-05T03:41:47;8.67;;;5.33;;
8536;SDS011;4306;50.210;10.628;2023-02-05T03:44:26;9.30;;;5.27;;
8536;SDS011;4306;50.210;10.628;2023-02-05T03:47:04;6.60;;;4.10;;
8536;SDS011;4306;50.210;10.628;2023-02-05T03:49:40;6.37;;;2.93;;
8536;SDS011;4306;50.210;10.628;2023-02-05T03:52:17;4.17;;;2.80;;
8536;SDS011;4306;50.210;10.628;2023-02-05T03:54:48;3.77;;;2.57;;
8536;SDS011;4306;50.210;10.628;2023-02-05T03:57:23;4.37;;;3.23;;
8536;SDS011;4306;50.210;10.628;2023-02-05T03:59:53;9.50;;;5.13;;
8536;SDS011;4306;50.210;10.628;2023-02-05T04:02:22;8.70;;;4.17;;
8536;SDS011;4306;50.210;10.628;2023-02-05T04:04:49;5.57;;;3.10;;
8536;SDS011;4306;50.210;10.628;2023-02-05T04:07:16;4.07;;;2.53;;
8536;SDS011;4306;50.210;10.628;2023-02-05T04:09:43;5.53;;;2.73;;
8536;SDS011;4306;50.210;10.628;2023-02-05T04:12:10;5.23;;;3.23;;
8536;SDS011;4306;50.210;10.628;2023-02-05T04:14:36;5.53;;;3.03;;
8536;SDS011;4306;50.210;10.628;2023-02-05T04:17:05;7.83;;;3.63;;
8536;SDS011;4306;50.210;10.628;2023-02-05T04:19:32;6.00;;;3.87;;
8536;SDS011;4306;50.210;10.628;2023-02-05T04:21:59;6.77;;;4.27;;
8536;SDS011;4306;50.210;10.628;2023-02-05T04:24:26;9.53;;;4.30;;
8536;SDS011;4306;50.210;10.628;2023-02-05T04:26:53;8.10;;;4.47;;
8536;SDS011;4306;50.210;10.628;2023-02-05T04:29:20;6.90;;;4.30;;
8536;SDS011;4306;50.210;10.628;2023-02-05T04:31:47;7.30;;;3.90;;
8536;SDS011;4306;50.210;10.628;2023-02-05T04:34:16;6.70;;;3.73;;
8536;SDS011;4306;50.210;10.628;2023-02-05T04:36:43;6.23;;;3.53;;
8536;SDS011;4306;50.210;10.628;2023-02-05T04:39:11;5.70;;;3.63;;
8536;SDS011;4306;50.210;10.628;2023-02-05T04:41:37;6.37;;;3.60;;
8536;SDS011;4306;50.210;10.628;2023-02-05T04:44:04;8.00;;;3.53;;
8536;SDS011;4306;50.210;10.628;2023-02-05T04:46:31;6.17;;;3.87;;
8536;SDS011;4306;50.210;10.628;2023-02-05T04:48:59;5.53;;;3.67;;
8536;SDS011;4306;50.210;10.628;2023-02-05T04:51:27;6.37;;;3.50;;
8536;SDS011;4306;50.210;10.628;2023-02-05T04:53:54;6.50;;;4.23;;
8536;SDS011;4306;50.210;10.628;2023-02-05T04:56:21;5.33;;;3.43;;
8536;SDS011;4306;50.210;10.628;2023-02-05T04:58:48;6.33;;;3.77;;
8536;SDS011;4306;50.210;10.628;2023-02-05T05:01:15;8.00;;;3.93;;
8536;SDS011;4306;50.210;10.628;2023-02-05T05:03:44;5.30;;;3.60;;
8536;SDS011;4306;50.210;10.628;2023-02-05T05:06:11;5.83;;;3.93;;
8536;SDS011;4306;50.210;10.628;2023-02-05T05:08:40;6.03;;;4.00;;
8536;SDS011;4306;50.210;10.628;2023-02-05T05:11:07;6.87;;;3.87;;
8536;SDS011;4306;50.210;10.628;2023-02-05T05:13:36;8.07;;;3.97;;
8536;SDS011;4306;50.210;10.628;2023-02-05T05:16:04;6.70;;;3.90;;
8536;SDS011;4306;50.210;10.628;2023-02-05T05:18:32;8.37;;;5.40;;
8536;SDS011;4306;50.210;10.628;2023-02-05T05:21:00;7.43;;;4.90;;
8536;SDS011;4306;50.210;10.628;2023-02-05T05:23:27;7.03;;;4.30;;
8536;SDS011;4306;50.210;10.628;2023-02-05T05:25:55;6.90;;;4.27;;
8536;SDS011;4306;50.210;10.628;2023-02-05T05:28:22;8.80;;;5.03;;
8536;SDS011;4306;50.210;10.628;2023-02-05T05:30:49;7.40;;;4.20;;
8536;SDS011;4306;50.210;10.628;2023-02-05T05:33:16;7.30;;;4.23;;
8536;SDS011;4306;50.210;10.628;2023-02-05T05:35:44;5.50;;;4.00;;
8536;SDS011;4306;50.210;10.628;2023-02-05T05:38:11;5.67;;;3.90;;
8536;SDS011;4306;50.210;10.628;2023-02-05T05:40:38;7.23;;;4.53;;
8536;SDS011;4306;50.210;10.628;2023-02-05T05:43:24;9.17;;;5.03;;
8536;SDS011;4306;50.210;10.628;2023-02-05T05:46:08;8.07;;;4.50;;
8536;SDS011;4306;50.210;10.628;2023-02-05T05:48:35;7.17;;;4.20;;
8536;SDS011;4306;50.210;10.628;2023-02-05T05:51:02;6.23;;;4.17;;
8536;SDS011;4306;50.210;10.628;2023-02-05T05:53:29;6.93;;;4.00;;
8536;SDS011;4306;50.210;10.628;2023-02-05T05:55:56;6.70;;;4.40;;
8536;SDS011;4306;50.210;10.628;2023-02-05T05:58:24;9.03;;;5.33;;
8536;SDS011;4306;50.210;10.628;2023-02-05T06:00:52;9.77;;;5.60;;
8536;SDS011;4306;50.210;10.628;2023-02-05T06:03:19;7.73;;;5.27;;
8536;SDS011;4306;50.210;10.628;2023-02-05T06:05:48;9.63;;;5.10;;
8536;SDS011;4306;50.210;10.628;2023-02-05T06:08:14;8.10;;;5.20;;
8536;SDS011;4306;50.210;10.628;2023-02-05T06:10:41;11.00;;;6.23;;
8536;SDS011;4306;50.210;10.628;2023-02-05T06:13:08;9.87;;;6.37;;
8536;SDS011;4306;50.210;10.628;2023-02-05T06:15:36;9.80;;;5.93;;
8536;SDS011;4306;50.210;10.628;2023-02-05T06:18:03;10.23;;;6.13;;
8536;SDS011;4306;50.210;10.628;2023-02-05T06:20:30;10.00;;;6.20;;
8536;SDS011;4306;50.210;10.628;2023-02-05T06:22:57;9.80;;;6.03;;
8536;SDS011;4306;50.210;10.628;2023-02-05T06:25:23;10.57;;;6.67;;
8536;SDS011;4306;50.210;10.628;2023-02-05T06:27:50;10.60;;;6.83;;
8536;SDS011;4306;50.210;10.628;2023-02-05T06:30:17;9.60;;;6.60;;
8536;SDS011;4306;50.210;10.628;2023-02-05T06:32:46;12.80;;;7.37;;
8536;SDS011;4306;50.210;10.628;2023-02-05T06:35:13;12.73;;;6.90;;
8536;SDS011;4306;50.210;10.628;2023-02-05T06:37:40;12.83;;;7.73;;
8536;SDS011;4306;50.210;10.628;2023-02-05T06:40:07;10.13;;;6.47;;
8536;SDS011;4306;50.210;10.628;2023-02-05T06:42:35;11.57;;;7.30;;
8536;SDS011;4306;50.210;10.628;2023-02-05T06:45:02;9.03;;;6.50;;
8536;SDS011;4306;50.210;10.628;2023-02-05T06:47:29;8.57;;;6.50;;
8536;SDS011;4306;50.210;10.628;2023-02-05T06:49:57;10.90;;;6.70;;
8536;SDS011;4306;50.210;10.628;2023-02-05T06:52:24;12.33;;;7.10;;
8536;SDS011;4306;50.210;10.628;2023-02-05T06:54:51;11.43;;;6.77;;
8536;SDS011;4306;50.210;10.628;2023-02-05T06:57:18;10.80;;;7.23;;
8536;SDS011;4306;50.210;10.628;2023-02-05T06:59:45;17.90;;;7.23;;
8536;SDS011;4306;50.210;10.628;2023-02-05T07:02:12;12.73;;;7.00;;
8536;SDS011;4306;50.210;10.628;2023-02-05T07:04:39;11.60;;;8.10;;
8536;SDS011;4306;50.210;10.628;2023-02-05T07:07:07;13.37;;;8.13;;
8536;SDS011;4306;50.210;10.628;2023-02-05T07:09:34;13.87;;;9.03;;
8536;SDS011;4306;50.210;10.628;2023-02-05T07:12:01;12.67;;;8.53;;
8536;SDS011;4306;50.210;10.628;2023-02-05T07:14:28;11.93;;;7.43;;
8536;SDS011;4306;50.210;10.628;2023-02-05T07:16:56;12.00;;;8.90;;
8536;SDS011;4306;50.210;10.628;2023-02-05T07:19:23;13.87;;;8.07;;
8536;SDS011;4306;50.210;10.628;2023-02-05T07:21:50;11.17;;;8.03;;
8536;SDS011;4306;50.210;10.628;2023-02-05T07:24:18;13.47;;;8.13;;
8536;SDS011;4306;50.210;10.628;2023-02-05T07:26:45;12.00;;;7.53;;
8536;SDS011;4306;50.210;10.628;2023-02-05T07:29:12;10.73;;;7.60;;
8536;SDS011;4306;50.210;10.628;2023-02-05T07:31:39;12.23;;;7.70;;
8536;SDS011;4306;50.210;10.628;2023-02-05T07:34:05;9.87;;;6.97;;
8536;SDS011;4306;50.210;10.628;2023-02-05T07:36:32;17.53;;;10.07;;
8536;SDS011;4306;50.210;10.628;2023-02-05T07:38:59;12.00;;;7.90;;
8536;SDS011;4306;50.210;10.628;2023-02-05T07:41:27;14.40;;;7.90;;
8536;SDS011;4306;50.210;10.628;2023-02-05T07:43:54;13.93;;;8.73;;
8536;SDS011;4306;50.210;10.628;2023-02-05T07:46:21;40.70;;;18.37;;
8536;SDS011;4306;50.210;10.628;2023-02-05T07:48:48;18.20;;;10.80;;
8536;SDS011;4306;50.210;10.628;2023-02-05T07:51:15;14.07;;;8.20;;
8536;SDS011;4306;50.210;10.628;2023-02-05T07:53:48;20.77;;;9.07;;
8536;SDS011;4306;50.210;10.628;2023-02-05T07:56:15;12.83;;;7.53;;
8536;SDS011;4306;50.210;10.628;2023-02-05T07:58:47;12.63;;;8.53;;
8536;SDS011;4306;50.210;10.628;2023-02-05T08:01:14;20.17;;;7.93;;
8536;SDS011;4306;50.210;10.628;2023-02-05T08:03:41;111.63;;;41.30;;
8536;SDS011;4306;50.210;10.628;2023-02-05T08:06:08;27.57;;;15.73;;
8536;SDS011;4306;50.210;10.628;2023-02-05T08:08:38;13.13;;;9.20;;
8536;SDS011;4306;50.210;10.628;2023-02-05T08:11:05;13.03;;;8.27;;
8536;SDS011;4306;50.210;10.628;2023-02-05T08:13:32;12.37;;;8.17;;
8536;SDS011;4306;50.210;10.628;2023-02-05T08:16:04;14.57;;;8.53;;
8536;SDS011;4306;50.210;10.628;2023-02-05T08:18:31;13.97;;;8.37;;
8536;SDS011;4306;50.210;10.628;2023-02-05T08:20:58;13.43;;;7.40;;
8536;SDS011;4306;50.210;10.628;2023-02-05T08:23:25;9.33;;;7.40;;
8536;SDS011;4306;50.210;10.628;2023-02-05T08:25:52;11.80;;;7.60;;
8536;SDS011;4306;50.210;10.628;2023-02-05T08:28:19;11.47;;;8.37;;
8536;SDS011;4306;50.210;10.628;2023-02-05T08:30:47;14.07;;;8.63;;
8536;SDS011;4306;50.210;10.628;2023-02-05T08:33:15;17.13;;;10.07;;
8536;SDS011;4306;50.210;10.628;2023-02-05T08:35:43;18.40;;;9.20;;
8536;SDS011;4306;50.210;10.628;2023-02-05T08:38:09;15.57;;;9.83;;
8536;SDS011;4306;50.210;10.628;2023-02-05T08:40:36;19.63;;;10.87;;
8536;SDS011;4306;50.210;10.628;2023-02-05T08:43:03;16.10;;;9.77;;
8536;SDS011;4306;50.210;10.628;2023-02-05T08:45:31;13.90;;;8.93;;
8536;SDS011;4306;50.210;10.628;2023-02-05T08:47:59;15.03;;;9.93;;
8536;SDS011;4306;50.210;10.628;2023-02-05T08:50:27;22.07;;;13.13;;
8536;SDS011;4306;50.210;10.628;2023-02-05T08:52:54;15.63;;;10.30;;
8536;SDS011;4306;50.210;10.628;2023-02-05T08:55:21;16.27;;;10.07;;
8536;SDS011;4306;50.210;10.628;2023-02-05T08:57:47;12.13;;;8.30;;
8536;SDS011;4306;50.210;10.628;2023-02-05T09:00:14;14.93;;;8.03;;
8536;SDS011;4306;50.210;10.628;2023-02-05T09:02:42;14.27;;;9.20;;
8536;SDS011;4306;50.210;10.628;2023-02-05T09:05:09;11.50;;;7.90;;
8536;SDS011;4306;50.210;10.628;2023-02-05T09:07:39;15.87;;;10.17;;
8536;SDS011;4306;50.210;10.628;2023-02-05T09:10:07;12.83;;;8.93;;
8536;SDS011;4306;50.210;10.628;2023-02-05T09:12:39;12.87;;;9.03;;
8536;SDS011;4306;50.210;10.628;2023-02-05T09:15:06;11.33;;;8.00;;
8536;SDS011;4306;50.210;10.628;2023-02-05T09:17:34;12.10;;;8.00;;
8536;SDS011;4306;50.210;10.628;2023-02-05T09:20:01;12.03;;;8.33;;
8536;SDS011;4306;50.210;10.628;2023-02-05T09:22:28;11.83;;;8.67;;
8536;SDS011;4306;50.210;10.628;2023-02-05T09:24:56;13.23;;;9.17;;
8536;SDS011;4306;50.210;10.628;2023-02-05T09:27:23;13.67;;;9.60;;
8536;SDS011;4306;50.210;10.628;2023-02-05T09:29:50;21.07;;;11.57;;
8536;SDS011;4306;50.210;10.628;2023-02-05T09:32:17;25.13;;;14.40;;
8536;SDS011;4306;50.210;10.628;2023-02-05T09:34:43;25.27;;;14.20;;
8536;SDS011;4306;50.210;10.628;2023-02-05T09:37:10;18.80;;;11.07;;
8536;SDS011;4306;50.210;10.628;2023-02-05T09:39:37;12.60;;;8.30;;
8536;SDS011;4306;50.210;10.628;2023-02-05T09:42:08;11.27;;;7.80;;
8536;SDS011;4306;50.210;10.628;2023-02-05T09:44:45;11.43;;;7.90;;
8536;SDS011;4306;50.210;10.628;2023-02-05T09:47:23;10.17;;;7.20;;
8536;SDS011;4306;50.210;10.628;2023-02-05T09:49:58;11.97;;;6.90;;
8536;SDS011;4306;50.210;10.628;2023-02-05T09:52:33;9.23;;;7.00;;
8536;SDS011;4306;50.210;10.628;2023-02-05T09:55:03;11.37;;;7.30;;
8536;SDS011;4306;50.210;10.628;2023-02-05T09:57:41;11.47;;;7.70;;
8536;SDS011;4306;50.210;10.628;2023-02-05T10:00:11;9.70;;;6.93;;
8536;SDS011;4306;50.210;10.628;2023-02-05T10:02:45;24.03;;;13.83;;
8536;SDS011;4306;50.210;10.628;2023-02-05T10:05:16;24.93;;;15.90;;
8536;SDS011;4306;50.210;10.628;2023-02-05T10:07:46;19.80;;;13.37;;
8536;SDS011;4306;50.210;10.628;2023-02-05T10:10:23;29.43;;;17.07;;
8536;SDS011;4306;50.210;10.628;2023-02-05T10:16:14;15.03;;;9.97;;
8536;SDS011;4306;50.210;10.628;2023-02-05T10:19:02;17.73;;;12.27;;
8536;SDS011;4306;50.210;10.628;2023-02-05T10:21:42;13.33;;;9.47;;
8536;SDS011;4306;50.210;10.628;2023-02-05T10:24:35;14.57;;;10.53;;
8536;SDS011;4306;50.210;10.628;2023-02-05T10:27:19;11.70;;;7.23;;
8536;SDS011;4306;50.210;10.628;2023-02-05T10:29:50;12.20;;;8.20;;
8536;SDS011;4306;50.210;10.628;2023-02-05T10:32:30;12.13;;;7.30;;
8536;SDS011;4306;50.210;10.628;2023-02-05T10:35:08;10.47;;;7.40;;
8536;SDS011;4306;50.210;10.628;2023-02-05T10:37:48;14.73;;;9.93;;
8536;SDS011;4306;50.210;10.628;2023-02-05T10:40:18;14.97;;;9.50;;
8536;SDS011;4306;50.210;10.628;2023-02-05T10:42:49;18.77;;;10.43;;
8536;SDS011;4306;50.210;10.628;2023-02-05T10:45:21;12.43;;;8.20;;
8536;SDS011;4306;50.210;10.628;2023-02-05T10:48:00;16.00;;;10.93;;
8536;SDS011;4306;50.210;10.628;2023-02-05T10:50:46;13.03;;;9.23;;
8536;SDS011;4306;50.210;10.628;2023-02-05T10:53:19;8.80;;;5.60;;
8536;SDS011;4306;50.210;10.628;2023-02-05T10:55:47;13.90;;;8.30;;
8536;SDS011;4306;50.210;10.628;2023-02-05T10:58:22;9.70;;;5.90;;
8536;SDS011;4306;50.210;10.628;2023-02-05T11:01:00;10.57;;;6.77;;
8536;SDS011;4306;50.210;10.628;2023-02-05T11:03:29;11.60;;;7.40;;
8536;SDS011;4306;50.210;10.628;2023-02-05T11:05:57;11.50;;;7.27;;
8536;SDS011;4306;50.210;10.628;2023-02-05T11:08:31;12.80;;;9.13;;
8536;SDS011;4306;50.210;10.628;2023-02-05T11:11:00;11.60;;;7.63;;
8536;SDS011;4306;50.210;10.628;2023-02-05T11:13:27;10.40;;;8.03;;
8536;SDS011;4306;50.210;10.628;2023-02-05T11:15:55;10.97;;;7.20;;
8536;SDS011;4306;50.210;10.628;2023-02-05T11:18:27;11.50;;;6.33;;
8536;SDS011;4306;50.210;10.628;2023-02-05T11:20:57;11.00;;;6.63;;
8536;SDS011;4306;50.210;10.628;2023-02-05T11:23:26;12.10;;;7.40;;
8536;SDS011;4306;50.210;10.628;2023-02-05T11:25:55;11.63;;;6.90;;
8536;SDS011;4306;50.210;10.628;2023-02-05T11:28:25;11.20;;;6.80;;
8536;SDS011;4306;50.210;10.628;2023-02-05T11:30:54;11.80;;;6.53;;
8536;SDS011;4306;50.210;10.628;2023-02-05T11:33:27;17.97;;;11.20;;
8536;SDS011;4306;50.210;10.628;2023-02-05T11:35:57;14.23;;;10.00;;
8536;SDS011;4306;50.210;10.628;2023-02-05T11:38:33;17.70;;;11.17;;
8536;SDS011;4306;50.210;10.628;2023-02-05T11:41:08;11.10;;;7.57;;
8536;SDS011;4306;50.210;10.628;2023-02-05T11:43:38;11.40;;;7.50;;
8536;SDS011;4306;50.210;10.628;2023-02-05T11:46:13;8.37;;;6.53;;
8536;SDS011;4306;50.210;10.628;2023-02-05T11:48:43;8.97;;;6.27;;
8536;SDS011;4306;50.210;10.628;2023-02-05T11:51:16;10.23;;;6.93;;
8536;SDS011;4306;50.210;10.628;2023-02-05T11:54:02;8.40;;;6.27;;
8536;SDS011;4306;50.210;10.628;2023-02-05T11:56:39;8.90;;;6.00;;
8536;SDS011;4306;50.210;10.628;2023-02-05T11:59:16;9.40;;;6.00;;
8536;SDS011;4306;50.210;10.628;2023-02-05T12:01:46;10.27;;;6.43;;
8536;SDS011;4306;50.210;10.628;2023-02-05T12:04:15;8.83;;;6.30;;
8536;SDS011;4306;50.210;10.628;2023-02-05T12:06:45;8.37;;;5.17;;
8536;SDS011;4306;50.210;10.628;2023-02-05T12:09:16;7.87;;;4.97;;
8536;SDS011;4306;50.210;10.628;2023-02-05T12:11:51;8.83;;;5.10;;
8536;SDS011;4306;50.210;10.628;2023-02-05T12:14:45;8.60;;;5.43;;
8536;SDS011;4306;50.210;10.628;2023-02-05T12:17:26;8.60;;;5.50;;
8536;SDS011;4306;50.210;10.628;2023-02-05T12:20:00;9.07;;;6.00;;
8536;SDS011;4306;50.210;10.628;2023-02-05T12:25:42;10.37;;;5.93;;
8536;SDS011;4306;50.210;10.628;2023-02-05T12:28:21;8.43;;;5.60;;
8536;SDS011;4306;50.210;10.628;2023-02-05T12:30:58;8.93;;;5.63;;
8536;SDS011;4306;50.210;10.628;2023-02-05T12:36:40;8.60;;;5.50;;
8536;SDS011;4306;50.210;10.628;2023-02-05T12:39:17;9.03;;;5.60;;
8536;SDS011;4306;50.210;10.628;2023-02-05T12:41:58;10.47;;;6.27;;
8536;SDS011;4306;50.210;10.628;2023-02-05T12:44:35;11.83;;;7.07;;
8536;SDS011;4306;50.210;10.628;2023-02-05T12:47:12;9.70;;;6.23;;
8536;SDS011;4306;50.210;10.628;2023-02-05T12:49:57;10.70;;;7.03;;
8536;SDS011;4306;50.210;10.628;2023-02-05T12:52:39;9.97;;;7.20;;
8536;SDS011;4306;50.210;10.628;2023-02-05T12:55:21;9.93;;;6.50;;
8536;SDS011;4306;50.210;10.628;2023-02-05T12:57:58;12.87;;;7.87;;
8536;SDS011;4306;50.210;10.628;2023-02-05T13:00:29;10.00;;;6.67;;
8536;SDS011;4306;50.210;10.628;2023-02-05T13:03:03;11.40;;;7.63;;
8536;SDS011;4306;50.210;10.628;2023-02-05T13:05:35;17.53;;;8.23;;
8536;SDS011;4306;50.210;10.628;2023-02-05T13:08:07;21.70;;;10.40;;
8536;SDS011;4306;50.210;10.628;2023-02-05T13:10:41;18.17;;;8.57;;
8536;SDS011;4306;50.210;10.628;2023-02-05T13:13:13;11.57;;;7.23;;
8536;SDS011;4306;50.210;10.628;2023-02-05T13:15:45;10.03;;;6.20;;
8536;SDS011;4306;50.210;10.628;2023-02-05T13:18:18;10.20;;;5.87;;
8536;SDS011;4306;50.210;10.628;2023-02-05T13:20:49;9.83;;;6.53;;
8536;SDS011;4306;50.210;10.628;2023-02-05T13:23:40;22.20;;;10.53;;
8536;SDS011;4306;50.210;10.628;2023-02-05T13:26:27;16.57;;;8.17;;
8536;SDS011;4306;50.210;10.628;2023-02-05T13:29:15;11.60;;;7.23;;
8536;SDS011;4306;50.210;10.628;2023-02-05T13:31:45;20.93;;;8.97;;
8536;SDS011;4306;50.210;10.628;2023-02-05T13:34:15;17.87;;;8.47;;
8536;SDS011;4306;50.210;10.628;2023-02-05T13:36:56;14.70;;;7.40;;
8536;SDS011;4306;50.210;10.628;2023-02-05T13:45:44;13.33;;;7.73;;
8536;SDS011;4306;50.210;10.628;2023-02-05T13:48:49;11.13;;;6.60;;
8536;SDS011;4306;50.210;10.628;2023-02-05T13:51:35;11.00;;;6.57;;
8536;SDS011;4306;50.210;10.628;2023-02-05T13:54:21;9.87;;;6.23;;
8536;SDS011;4306;50.210;10.628;2023-02-05T13:57:18;9.50;;;6.87;;
8536;SDS011;4306;50.210;10.628;2023-02-05T14:00:30;9.00;;;7.00;;
8536;SDS011;4306;50.210;10.628;2023-02-05T14:02:59;16.90;;;11.43;;
8536;SDS011;4306;50.210;10.628;2023-02-05T14:05:31;8.97;;;6.33;;
8536;SDS011;4306;50.210;10.628;2023-02-05T14:08:00;10.90;;;7.20;;
8536;SDS011;4306;50.210;10.628;2023-02-05T14:10:29;12.30;;;7.90;;
8536;SDS011;4306;50.210;10.628;2023-02-05T14:13:11;9.50;;;7.13;;
8536;SDS011;4306;50.210;10.628;2023-02-05T14:15:46;10.77;;;7.17;;
8536;SDS011;4306;50.210;10.628;2023-02-05T14:24:40;12.23;;;7.33;;
8536;SDS011;4306;50.210;10.628;2023-02-05T14:30:30;11.27;;;6.70;;
8536;SDS011;4306;50.210;10.628;2023-02-05T14:38:58;9.07;;;6.80;;
8536;SDS011;4306;50.210;10.628;2023-02-05T14:41:45;9.83;;;6.23;;
8536;SDS011;4306;50.210;10.628;2023-02-05T14:44:16;9.17;;;6.70;;
8536;SDS011;4306;50.210;10.628;2023-02-05T14:46:54;10.10;;;7.00;;
8536;SDS011;4306;50.210;10.628;2023-02-05T14:49:34;9.87;;;7.47;;
8536;SDS011;4306;50.210;10.628;2023-02-05T14:52:06;12.00;;;8.40;;
8536;SDS011;4306;50.210;10.628;2023-02-05T14:54:45;10.33;;;6.77;;
8536;SDS011;4306;50.210;10.628;2023-02-05T14:57:17;11.83;;;7.20;;
8536;SDS011;4306;50.210;10.628;2023-02-05T14:59:50;11.20;;;7.77;;
8536;SDS011;4306;50.210;10.628;2023-02-05T15:05:18;12.03;;;7.77;;
8536;SDS011;4306;50.210;10.628;2023-02-05T15:07:51;31.47;;;26.03;;
8536;SDS011;4306;50.210;10.628;2023-02-05T15:10:28;11.43;;;8.83;;
8536;SDS011;4306;50.210;10.628;2023-02-05T15:13:02;12.23;;;8.77;;
8536;SDS011;4306;50.210;10.628;2023-02-05T15:15:35;11.10;;;7.90;;
8536;SDS011;4306;50.210;10.628;2023-02-05T15:18:17;10.73;;;7.70;;
8536;SDS011;4306;50.210;10.628;2023-02-05T15:20:49;11.10;;;8.07;;
8536;SDS011;4306;50.210;10.628;2023-02-05T15:23:22;12.70;;;7.63;;
8536;SDS011;4306;50.210;10.628;2023-02-05T15:25:57;15.17;;;10.43;;
8536;SDS011;4306;50.210;10.628;2023-02-05T15:28:29;15.13;;;10.13;;
8536;SDS011;4306;50.210;10.628;2023-02-05T15:31:12;13.67;;;10.20;;
8536;SDS011;4306;50.210;10.628;2023-02-05T15:33:48;12.27;;;8.60;;
8536;SDS011;4306;50.210;10.628;2023-02-05T15:36:24;13.53;;;8.73;;
8536;SDS011;4306;50.210;10.628;2023-02-05T15:39:06;15.43;;;10.63;;
8536;SDS011;4306;50.210;10.628;2023-02-05T15:41:43;13.80;;;9.20;;
8536;SDS011;4306;50.210;10.628;2023-02-05T15:44:21;13.97;;;9.30;;
8536;SDS011;4306;50.210;10.628;2023-02-05T15:46:51;14.27;;;8.93;;
8536;SDS011;4306;50.210;10.628;2023-02-05T15:49:20;13.77;;;8.93;;
8536;SDS011;4306;50.210;10.628;2023-02-05T15:51:54;14.90;;;9.27;;
8536;SDS011;4306;50.210;10.628;2023-02-05T15:54:21;20.23;;;12.93;;